Hamnavoe — VSTY7 — position and weather

sailwx.info

Track history (hours):
 
Tides and Currents Weather Stations Pressure Air Temp Water Temp Dewpoint Dewpoint Depression Visibility Wind Speed Wind Dir Waves Ship Positions

Hamnavoe

Operator: NorthLink Orkey & Shetland Ferries Ltd

Last reported at 2018-Sep-18 19:16 UTC. Time now 2018-Sep-19 03:51 UTC.
Position N 58°58' W 003°18'.

Length 112 m; draft 4.2 m.

Type: Ship. MMSI: 235449000.

Date/timePositionNaut miles runAvg speedWind from/ knotsBaromVisibWave heightAir tempDewpointWater temp
2018-Sep-18 19:16N 58°58' W 003°18'2 8.7
2018-Sep-18 19:03N 58°57' W 003°21'318.1
2018-Sep-18 18:54N 58°55' W 003°26'818.9
2018-Sep-18 18:28N 58°48' W 003°29'1110.2
2018-Sep-18 17:23N 58°37' W 003°32'0 0.5
2018-Sep-18 17:02N 58°37' W 003°32'115.5
2018-Sep-18 16:58N 58°38' W 003°31'919.1
2018-Sep-18 16:30N 58°46' W 003°29'1216.8
2018-Sep-18 15:49N 58°57' W 003°19'1 0.2
2018-Sep-18 09:07N 58°58' W 003°18'0 6.7
2018-Sep-18 09:02N 58°57' W 003°17'1 8.8
2018-Sep-18 08:58N 58°57' W 003°18'915.0
2018-Sep-18 08:24N 58°50' W 003°29'617.7
2018-Sep-18 08:03N 58°44' W 003°30'117.7
2018-Sep-18 08:00N 58°43' W 003°30'6 5.2
2018-Sep-18 06:47N 58°37' W 003°32'516.8
2018-Sep-18 06:30N 58°41' W 003°31'1717.3
2018-Sep-18 05:32N 58°57' W 003°19'017.9
2018-Sep-18 05:30N 58°57' W 003°18'1 0.1
2018-Sep-17 19:18N 58°58' W 003°18'3 9.6
2018-Sep-17 19:01N 58°57' W 003°22'318.1
2018-Sep-17 18:51N 58°54' W 003°26'819.2
2018-Sep-17 18:27N 58°47' W 003°29'1016.7
2018-Sep-17 17:50N 58°37' W 003°32'0 0.0
2018-Sep-17 17:22N 58°37' W 003°32'3 6.5
2018-Sep-17 16:57N 58°39' W 003°31'818.7
2018-Sep-17 16:30N 58°47' W 003°29'1017.1
2018-Sep-17 15:56N 58°57' W 003°22'3 0.4
2018-Sep-17 09:00N 58°58' W 003°18'1015.3
2018-Sep-17 08:20N 58°49' W 003°30'519.2
2018-Sep-17 08:03N 58°44' W 003°31'118.9
2018-Sep-17 08:00N 58°43' W 003°31'610.3
2018-Sep-17 07:23N 58°37' W 003°32'0 0.0
2018-Sep-17 07:01N 58°37' W 003°32'0 0.9
2018-Sep-17 06:56N 58°37' W 003°32'715.5
2018-Sep-17 06:30N 58°43' W 003°30'1516.5
2018-Sep-17 05:36N 58°57' W 003°18'1 8.3
2018-Sep-17 05:30N 58°57' W 003°18'0 0.0
2018-Sep-16 19:26N 58°58' W 003°18'512.7
2018-Sep-16 19:02N 58°55' W 003°26'119.7
2018-Sep-16 19:00N 58°55' W 003°27'919.1
2018-Sep-16 18:31N 58°45' W 003°30'9 8.5
2018-Sep-16 17:29N 58°37' W 003°32'3 6.3
2018-Sep-16 17:03N 58°39' W 003°31'119.0
2018-Sep-16 17:00N 58°40' W 003°31'1814.2
2018-Sep-16 15:45N 58°57' W 003°18'1 0.2
2018-Sep-16 12:16N 58°58' W 003°18'210.6
2018-Sep-16 12:03N 58°57' W 003°22'417.8
2018-Sep-16 11:51N 58°54' W 003°27'918.0
2018-Sep-16 11:21N 58°46' W 003°30'7 3.3
2018-Sep-16 09:13N 58°39' W 003°31'319.2
2018-Sep-16 09:03N 58°42' W 003°30'119.0
2018-Sep-16 09:00N 58°43' W 003°30'1516.3
2018-Sep-16 08:03N 58°57' W 003°18'113.6
2018-Sep-16 08:00N 58°57' W 003°17'1 0.1
2018-Sep-15 19:16N 58°58' W 003°18'2 7.4
2018-Sep-15 19:01N 58°57' W 003°21'119.0
2018-Sep-15 18:59N 58°57' W 003°22'918.4
2018-Sep-15 18:30N 58°49' W 003°29'12 8.8
2018-Sep-15 17:08N 58°37' W 003°33'110.6
2018-Sep-15 17:00N 58°38' W 003°32'1019.2
2018-Sep-15 16:30N 58°47' W 003°30'1116.5
2018-Sep-15 15:50N 58°57' W 003°19'1 0.4
2018-Sep-15 13:40N 58°58' W 003°18'914.3
2018-Sep-15 13:02N 58°50' W 003°28'118.1
2018-Sep-15 12:59N 58°49' W 003°29'13 9.1
2018-Sep-15 11:33N 58°37' W 003°33'214.2
2018-Sep-15 11:25N 58°38' W 003°31'718.5
2018-Sep-15 11:03N 58°45' W 003°30'118.6
2018-Sep-15 11:00N 58°46' W 003°30'1216.1
2018-Sep-15 10:15N 58°57' W 003°19'1 0.8
2018-Sep-15 09:07N 58°58' W 003°18'1 9.3
2018-Sep-15 09:03N 58°57' W 003°17'317.9
2018-Sep-15 08:54N 58°57' W 003°22'817.7
2018-Sep-15 08:25N 58°49' W 003°29'718.7
2018-Sep-15 08:03N 58°42' W 003°31'117.9
2018-Sep-15 08:00N 58°41' W 003°31'5 4.5
2018-Sep-15 06:55N 58°37' W 003°33'717.1
2018-Sep-15 06:31N 58°44' W 003°31'1515.7
2018-Sep-15 05:34N 58°57' W 003°18'111.0
2018-Sep-15 05:30N 58°57' W 003°18'0 0.0
2018-Sep-14 19:28N 58°58' W 003°18'1014.6
2018-Sep-14 18:48N 58°50' W 003°29'618.8
2018-Sep-14 18:30N 58°44' W 003°30'7 4.8
2018-Sep-14 17:07N 58°38' W 003°32'418.7
2018-Sep-14 16:56N 58°41' W 003°33'1715.9
2018-Sep-14 15:51N 58°57' W 003°19'1 0.2
2018-Sep-14 09:09N 58°58' W 003°18'0 1.8
2018-Sep-14 09:03N 58°58' W 003°18'1 9.6
2018-Sep-14 08:59N 58°57' W 003°17'915.9
2018-Sep-14 08:24N 58°50' W 003°29'718.5
2018-Sep-14 08:03N 58°43' W 003°30'117.9
2018-Sep-14 08:00N 58°43' W 003°30'610.5
2018-Sep-14 07:26N 58°37' W 003°32'0 0.2
2018-Sep-14 06:57N 58°37' W 003°33'716.9
2018-Sep-14 06:30N 58°44' W 003°31'1317.2
2018-Sep-14 05:45N 58°56' W 003°23'3 0.3
2018-Sep-13 19:24N 58°58' W 003°18'1015.5
2018-Sep-13 18:45N 58°51' W 003°32'518.8
2018-Sep-13 18:30N 58°46' W 003°32'9 7.1
2018-Sep-13 17:12N 58°37' W 003°33'314.8
2018-Sep-13 16:58N 58°40' W 003°32'918.4
2018-Sep-13 16:30N 58°49' W 003°31'1014.5
2018-Sep-13 15:48N 58°57' W 003°19'1 0.2
2018-Sep-13 09:10N 58°58' W 003°18'1 8.2
2018-Sep-13 09:03N 58°57' W 003°18'617.2
2018-Sep-13 08:43N 58°54' W 003°27'618.6
2018-Sep-13 08:25N 58°49' W 003°32'718.4
2018-Sep-13 08:03N 58°42' W 003°32'118.0
2018-Sep-13 07:59N 58°41' W 003°32'5 5.1
2018-Sep-13 07:06N 58°37' W 003°33'0 4.8
2018-Sep-13 07:03N 58°37' W 003°32'112.1
2018-Sep-13 07:00N 58°37' W 003°32'917.0
2018-Sep-13 06:28N 58°46' W 003°36'1316.5
2018-Sep-13 05:42N 58°57' W 003°22'212.4
2018-Sep-13 05:30N 58°57' W 003°18'0 0.0
2018-Sep-12 19:23N 58°57' W 003°18'514.7
2018-Sep-12 19:02N 58°55' W 003°26'118.6
2018-Sep-12 19:00N 58°54' W 003°27'919.2
2018-Sep-12 18:30N 58°45' W 003°30'8 7.4
2018-Sep-12 17:22N 58°37' W 003°33'516.1
2018-Sep-12 17:03N 58°42' W 003°32'118.6
2018-Sep-12 17:01N 58°42' W 003°32'1615.2
2018-Sep-12 15:57N 58°57' W 003°18'1 0.1
2018-Sep-12 09:24N 58°57' W 003°18'515.2
2018-Sep-12 09:03N 58°53' W 003°12'119.0
2018-Sep-12 09:00N 58°52' W 003°11'815.9
2018-Sep-12 08:30N 58°44' W 003°12'1021.2
2018-Sep-12 08:02N 58°39' W 003°28'119.6
2018-Sep-12 08:00N 58°39' W 003°29'3 4.4
2018-Sep-12 07:23N 58°37' W 003°32'1 2.2
2018-Sep-12 07:03N 58°37' W 003°32'518.7
2018-Sep-12 06:48N 58°42' W 003°36'516.2
2018-Sep-12 06:30N 58°46' W 003°37'1116.5
2018-Sep-12 05:49N 58°56' W 003°26'4 0.4
2018-Sep-11 19:51N 58°58' W 003°18'1 2.1
2018-Sep-11 19:28N 58°57' W 003°17'816.6
2018-Sep-11 19:00N 58°53' W 003°30'918.2
2018-Sep-11 18:30N 58°44' W 003°32'7 7.7
2018-Sep-11 17:34N 58°37' W 003°32'0 0.2
2018-Sep-11 17:09N 58°37' W 003°32'215.4
2018-Sep-11 17:02N 58°38' W 003°32'119.4
2018-Sep-11 16:59N 58°39' W 003°32'918.1
2018-Sep-11 16:30N 58°48' W 003°33'1115.4
2018-Sep-11 15:46N 58°57' W 003°19'1 0.2
2018-Sep-11 09:11N 58°58' W 003°18'1 5.7
2018-Sep-11 09:02N 58°57' W 003°17'116.8
2018-Sep-11 09:00N 58°57' W 003°19'1315.9
2018-Sep-11 08:10N 58°45' W 003°30'218.4
2018-Sep-11 08:03N 58°43' W 003°30'118.8
2018-Sep-11 08:00N 58°42' W 003°30'6 5.0
2018-Sep-11 06:55N 58°37' W 003°33'716.4
2018-Sep-11 06:30N 58°43' W 003°28'1219.7
2018-Sep-11 05:55N 58°54' W 003°27'513.5
2018-Sep-11 05:30N 58°58' W 003°18'0 0.0
2018-Sep-10 19:28N 58°58' W 003°18'914.6
2018-Sep-10 18:50N 58°50' W 003°29'618.8
2018-Sep-10 18:30N 58°44' W 003°30'7 6.3
2018-Sep-10 17:19N 58°37' W 003°33'515.8
2018-Sep-10 17:01N 58°41' W 003°33'118.6
2018-Sep-10 16:59N 58°42' W 003°33'1716.1
2018-Sep-10 15:58N 58°57' W 003°19'1 0.1
2018-Sep-10 09:05N 58°58' W 003°18'110.2
2018-Sep-10 09:02N 58°57' W 003°17'517.4
2018-Sep-10 08:45N 58°55' W 003°26'617.3
2018-Sep-10 08:25N 58°50' W 003°29'618.0
2018-Sep-10 08:04N 58°43' W 003°30'118.7
2018-Sep-10 08:00N 58°42' W 003°31'6 5.5
2018-Sep-10 06:59N 58°37' W 003°32'917.5
2018-Sep-10 06:30N 58°45' W 003°30'1315.7
2018-Sep-10 05:41N 58°57' W 003°20'1 0.1
2018-Sep-09 19:14N 58°58' W 003°18'513.9
2018-Sep-09 18:54N 58°55' W 003°26'917.9
2018-Sep-09 18:25N 58°47' W 003°29'9 6.3
2018-Sep-09 16:57N 58°38' W 003°31'919.3
2018-Sep-09 16:30N 58°46' W 003°29'1216.8
2018-Sep-09 15:48N 58°57' W 003°19'1 0.3
2018-Sep-09 12:20N 58°58' W 003°18'914.0
2018-Sep-09 11:40N 58°50' W 003°28'419.5
2018-Sep-09 11:27N 58°46' W 003°29'8 3.7
2018-Sep-09 09:15N 58°38' W 003°31'419.2
2018-Sep-09 09:02N 58°42' W 003°30'119.2
2018-Sep-09 09:00N 58°42' W 003°30'1616.7
2018-Sep-09 08:04N 58°57' W 003°18'013.0
2018-Sep-09 08:03N 58°57' W 003°17'010.8
2018-Sep-09 08:01N 58°57' W 003°18'0 0.0
2018-Sep-08 19:17N 58°58' W 003°18'  
Track history (hours):
 
Tides and Currents Weather Stations Pressure Air Temp Water Temp Dewpoint Dewpoint Depression Visibility Wind Speed Wind Dir Waves Ship Positions

Hamnavoe

Operator: NorthLink Orkey & Shetland Ferries Ltd

Last reported at 2018-Sep-18 19:16 UTC. Time now 2018-Sep-19 03:51 UTC.
Position N 58°58' W 003°18'.

Length 112 m; draft 4.2 m.

Type: Ship. MMSI: 235449000.

Date/timePositionNaut miles runAvg speedWind from/ knotsBaromVisibWave heightAir tempDewpointWater temp
2018-Sep-18 19:16N 58°58' W 003°18'2 8.7
2018-Sep-18 19:03N 58°57' W 003°21'318.1
2018-Sep-18 18:54N 58°55' W 003°26'818.9
2018-Sep-18 18:28N 58°48' W 003°29'1110.2
2018-Sep-18 17:23N 58°37' W 003°32'0 0.5
2018-Sep-18 17:02N 58°37' W 003°32'115.5
2018-Sep-18 16:58N 58°38' W 003°31'919.1
2018-Sep-18 16:30N 58°46' W 003°29'1216.8
2018-Sep-18 15:49N 58°57' W 003°19'1 0.2
2018-Sep-18 09:07N 58°58' W 003°18'0 6.7
2018-Sep-18 09:02N 58°57' W 003°17'1 8.8
2018-Sep-18 08:58N 58°57' W 003°18'915.0
2018-Sep-18 08:24N 58°50' W 003°29'617.7
2018-Sep-18 08:03N 58°44' W 003°30'117.7
2018-Sep-18 08:00N 58°43' W 003°30'6 5.2
2018-Sep-18 06:47N 58°37' W 003°32'516.8
2018-Sep-18 06:30N 58°41' W 003°31'1717.3
2018-Sep-18 05:32N 58°57' W 003°19'017.9
2018-Sep-18 05:30N 58°57' W 003°18'1 0.1
2018-Sep-17 19:18N 58°58' W 003°18'3 9.6
2018-Sep-17 19:01N 58°57' W 003°22'318.1
2018-Sep-17 18:51N 58°54' W 003°26'819.2
2018-Sep-17 18:27N 58°47' W 003°29'1016.7
2018-Sep-17 17:50N 58°37' W 003°32'0 0.0
2018-Sep-17 17:22N 58°37' W 003°32'3 6.5
2018-Sep-17 16:57N 58°39' W 003°31'818.7
2018-Sep-17 16:30N 58°47' W 003°29'1017.1
2018-Sep-17 15:56N 58°57' W 003°22'3 0.4
2018-Sep-17 09:00N 58°58' W 003°18'1015.3
2018-Sep-17 08:20N 58°49' W 003°30'519.2
2018-Sep-17 08:03N 58°44' W 003°31'118.9
2018-Sep-17 08:00N 58°43' W 003°31'610.3
2018-Sep-17 07:23N 58°37' W 003°32'0 0.0
2018-Sep-17 07:01N 58°37' W 003°32'0 0.9
2018-Sep-17 06:56N 58°37' W 003°32'715.5
2018-Sep-17 06:30N 58°43' W 003°30'1516.5
2018-Sep-17 05:36N 58°57' W 003°18'1 8.3
2018-Sep-17 05:30N 58°57' W 003°18'0 0.0
2018-Sep-16 19:26N 58°58' W 003°18'512.7
2018-Sep-16 19:02N 58°55' W 003°26'119.7
2018-Sep-16 19:00N 58°55' W 003°27'919.1
2018-Sep-16 18:31N 58°45' W 003°30'9 8.5
2018-Sep-16 17:29N 58°37' W 003°32'3 6.3
2018-Sep-16 17:03N 58°39' W 003°31'119.0
2018-Sep-16 17:00N 58°40' W 003°31'1814.2
2018-Sep-16 15:45N 58°57' W 003°18'1 0.2
2018-Sep-16 12:16N 58°58' W 003°18'210.6
2018-Sep-16 12:03N 58°57' W 003°22'417.8
2018-Sep-16 11:51N 58°54' W 003°27'918.0
2018-Sep-16 11:21N 58°46' W 003°30'7 3.3
2018-Sep-16 09:13N 58°39' W 003°31'319.2
2018-Sep-16 09:03N 58°42' W 003°30'119.0
2018-Sep-16 09:00N 58°43' W 003°30'1516.3
2018-Sep-16 08:03N 58°57' W 003°18'113.6
2018-Sep-16 08:00N 58°57' W 003°17'1 0.1
2018-Sep-15 19:16N 58°58' W 003°18'2 7.4
2018-Sep-15 19:01N 58°57' W 003°21'119.0
2018-Sep-15 18:59N 58°57' W 003°22'918.4
2018-Sep-15 18:30N 58°49' W 003°29'12 8.8
2018-Sep-15 17:08N 58°37' W 003°33'110.6
2018-Sep-15 17:00N 58°38' W 003°32'1019.2
2018-Sep-15 16:30N 58°47' W 003°30'1116.5
2018-Sep-15 15:50N 58°57' W 003°19'1 0.4
2018-Sep-15 13:40N 58°58' W 003°18'914.3
2018-Sep-15 13:02N 58°50' W 003°28'118.1
2018-Sep-15 12:59N 58°49' W 003°29'13 9.1
2018-Sep-15 11:33N 58°37' W 003°33'214.2
2018-Sep-15 11:25N 58°38' W 003°31'718.5
2018-Sep-15 11:03N 58°45' W 003°30'118.6
2018-Sep-15 11:00N 58°46' W 003°30'1216.1
2018-Sep-15 10:15N 58°57' W 003°19'1 0.8
2018-Sep-15 09:07N 58°58' W 003°18'1 9.3
2018-Sep-15 09:03N 58°57' W 003°17'317.9
2018-Sep-15 08:54N 58°57' W 003°22'817.7
2018-Sep-15 08:25N 58°49' W 003°29'718.7
2018-Sep-15 08:03N 58°42' W 003°31'117.9
2018-Sep-15 08:00N 58°41' W 003°31'5 4.5
2018-Sep-15 06:55N 58°37' W 003°33'717.1
2018-Sep-15 06:31N 58°44' W 003°31'1515.7
2018-Sep-15 05:34N 58°57' W 003°18'111.0
2018-Sep-15 05:30N 58°57' W 003°18'0 0.0
2018-Sep-14 19:28N 58°58' W 003°18'1014.6
2018-Sep-14 18:48N 58°50' W 003°29'618.8
2018-Sep-14 18:30N 58°44' W 003°30'7 4.8
2018-Sep-14 17:07N 58°38' W 003°32'418.7
2018-Sep-14 16:56N 58°41' W 003°33'1715.9
2018-Sep-14 15:51N 58°57' W 003°19'1 0.2
2018-Sep-14 09:09N 58°58' W 003°18'0 1.8
2018-Sep-14 09:03N 58°58' W 003°18'1 9.6
2018-Sep-14 08:59N 58°57' W 003°17'915.9
2018-Sep-14 08:24N 58°50' W 003°29'718.5
2018-Sep-14 08:03N 58°43' W 003°30'117.9
2018-Sep-14 08:00N 58°43' W 003°30'610.5
2018-Sep-14 07:26N 58°37' W 003°32'0 0.2
2018-Sep-14 06:57N 58°37' W 003°33'716.9
2018-Sep-14 06:30N 58°44' W 003°31'1317.2
2018-Sep-14 05:45N 58°56' W 003°23'3 0.3
2018-Sep-13 19:24N 58°58' W 003°18'1015.5
2018-Sep-13 18:45N 58°51' W 003°32'518.8
2018-Sep-13 18:30N 58°46' W 003°32'9 7.1
2018-Sep-13 17:12N 58°37' W 003°33'314.8
2018-Sep-13 16:58N 58°40' W 003°32'918.4
2018-Sep-13 16:30N 58°49' W 003°31'1014.5
2018-Sep-13 15:48N 58°57' W 003°19'1 0.2
2018-Sep-13 09:10N 58°58' W 003°18'1 8.2
2018-Sep-13 09:03N 58°57' W 003°18'617.2
2018-Sep-13 08:43N 58°54' W 003°27'618.6
2018-Sep-13 08:25N 58°49' W 003°32'718.4
2018-Sep-13 08:03N 58°42' W 003°32'118.0
2018-Sep-13 07:59N 58°41' W 003°32'5 5.1
2018-Sep-13 07:06N 58°37' W 003°33'0 4.8
2018-Sep-13 07:03N 58°37' W 003°32'112.1
2018-Sep-13 07:00N 58°37' W 003°32'917.0
2018-Sep-13 06:28N 58°46' W 003°36'1316.5
2018-Sep-13 05:42N 58°57' W 003°22'212.4
2018-Sep-13 05:30N 58°57' W 003°18'0 0.0
2018-Sep-12 19:23N 58°57' W 003°18'514.7
2018-Sep-12 19:02N 58°55' W 003°26'118.6
2018-Sep-12 19:00N 58°54' W 003°27'919.2
2018-Sep-12 18:30N 58°45' W 003°30'8 7.4
2018-Sep-12 17:22N 58°37' W 003°33'516.1
2018-Sep-12 17:03N 58°42' W 003°32'118.6
2018-Sep-12 17:01N 58°42' W 003°32'1615.2
2018-Sep-12 15:57N 58°57' W 003°18'1 0.1
2018-Sep-12 09:24N 58°57' W 003°18'515.2
2018-Sep-12 09:03N 58°53' W 003°12'119.0
2018-Sep-12 09:00N 58°52' W 003°11'815.9
2018-Sep-12 08:30N 58°44' W 003°12'1021.2
2018-Sep-12 08:02N 58°39' W 003°28'119.6
2018-Sep-12 08:00N 58°39' W 003°29'3 4.4
2018-Sep-12 07:23N 58°37' W 003°32'1 2.2
2018-Sep-12 07:03N 58°37' W 003°32'518.7
2018-Sep-12 06:48N 58°42' W 003°36'516.2
2018-Sep-12 06:30N 58°46' W 003°37'1116.5
2018-Sep-12 05:49N 58°56' W 003°26'4 0.4
2018-Sep-11 19:51N 58°58' W 003°18'1 2.1
2018-Sep-11 19:28N 58°57' W 003°17'816.6
2018-Sep-11 19:00N 58°53' W 003°30'918.2
2018-Sep-11 18:30N 58°44' W 003°32'7 7.7
2018-Sep-11 17:34N 58°37' W 003°32'0 0.2
2018-Sep-11 17:09N 58°37' W 003°32'215.4
2018-Sep-11 17:02N 58°38' W 003°32'119.4
2018-Sep-11 16:59N 58°39' W 003°32'918.1
2018-Sep-11 16:30N 58°48' W 003°33'1115.4
2018-Sep-11 15:46N 58°57' W 003°19'1 0.2
2018-Sep-11 09:11N 58°58' W 003°18'1 5.7
2018-Sep-11 09:02N 58°57' W 003°17'116.8
2018-Sep-11 09:00N 58°57' W 003°19'1315.9
2018-Sep-11 08:10N 58°45' W 003°30'218.4
2018-Sep-11 08:03N 58°43' W 003°30'118.8
2018-Sep-11 08:00N 58°42' W 003°30'6 5.0
2018-Sep-11 06:55N 58°37' W 003°33'716.4
2018-Sep-11 06:30N 58°43' W 003°28'1219.7
2018-Sep-11 05:55N 58°54' W 003°27'513.5
2018-Sep-11 05:30N 58°58' W 003°18'0 0.0
2018-Sep-10 19:28N 58°58' W 003°18'914.6
2018-Sep-10 18:50N 58°50' W 003°29'618.8
2018-Sep-10 18:30N 58°44' W 003°30'7 6.3
2018-Sep-10 17:19N 58°37' W 003°33'515.8
2018-Sep-10 17:01N 58°41' W 003°33'118.6
2018-Sep-10 16:59N 58°42' W 003°33'1716.1
2018-Sep-10 15:58N 58°57' W 003°19'1 0.1
2018-Sep-10 09:05N 58°58' W 003°18'110.2
2018-Sep-10 09:02N 58°57' W 003°17'517.4
2018-Sep-10 08:45N 58°55' W 003°26'617.3
2018-Sep-10 08:25N 58°50' W 003°29'618.0
2018-Sep-10 08:04N 58°43' W 003°30'118.7
2018-Sep-10 08:00N 58°42' W 003°31'6 5.5
2018-Sep-10 06:59N 58°37' W 003°32'917.5
2018-Sep-10 06:30N 58°45' W 003°30'1315.7
2018-Sep-10 05:41N 58°57' W 003°20'1 0.1
2018-Sep-09 19:14N 58°58' W 003°18'513.9
2018-Sep-09 18:54N 58°55' W 003°26'917.9
2018-Sep-09 18:25N 58°47' W 003°29'9 6.3
2018-Sep-09 16:57N 58°38' W 003°31'919.3
2018-Sep-09 16:30N 58°46' W 003°29'1216.8
2018-Sep-09 15:48N 58°57' W 003°19'1 0.3
2018-Sep-09 12:20N 58°58' W 003°18'914.0
2018-Sep-09 11:40N 58°50' W 003°28'419.5
2018-Sep-09 11:27N 58°46' W 003°29'8 3.7
2018-Sep-09 09:15N 58°38' W 003°31'419.2
2018-Sep-09 09:02N 58°42' W 003°30'119.2
2018-Sep-09 09:00N 58°42' W 003°30'1616.7
2018-Sep-09 08:04N 58°57' W 003°18'013.0
2018-Sep-09 08:03N 58°57' W 003°17'010.8
2018-Sep-09 08:01N 58°57' W 003°18'0 0.0
2018-Sep-08 19:17N 58°58' W 003°18'  

Dump ship's entire track history